Pagrindinis puslapis
METAR-TAF:

METAR-TAF

Oro uostai :

Kuveitas, Kuveitas

platuma: 29-13N, ilguma: 047-59E, Aukštis: 55 m

Dabartinis oras

Ataskaita buvo paskelbta 57 minutes, ne 09:00 UTC
Ramus vėjas
Temperatūra 20°C
Drėgmė 32%
Slėgis 1020 hPa
Matomumas 10 km arba daugiau
Mažai debesys ne aukštis 2500 ft
Išsisklaidę debesys ne aukštis 20000 ft

METAR: OKBK 090900Z 00000KT 9999 FEW025 SCT200 20/03 Q1020 NOSIG

Laikas: 12:57 (09:57 UTC)

Prognozė

Ataskaita buvo paskelbta 5 valandos ir 12 minutes, ne 04:45 UTC
Prognozė galioja nuo 09 metu 06 UTC su 10 metu 12 UTC
Vėjas 7 kt iš Rytų/Šiaurės Rytų
Matomumas: 7000 m
Giedras dangus
Laikinai
nuo 09 metu 06 UTC su 09 metu 15 UTC
Vėjas 3 kt nuo kintamojo kryptimis
Matomumas: 4000 m
migla

TAF: OKBK 090445Z 0906/1012 07007KT 7000 SKC TEMPO 0906/0915 VRB03KT 4000 HZ

Orai ataskaitas ir orų prognozės (METAR, TAF).

turimą stotys yra geltonos ir raudonos taškus žemėlapyje.

Perkelti pele per norėdami pamatyti stoties vardą.

Tada spustelėkite, norėdami matyti oro stebėjimo ir prognozės.

Norėdami pakeisti žemėlapį: spustelėkite ant žalios mygtukų su juodo kryžiaus žemyn,; žalią mygtuką su brūkšneliu, jei norite nutolinti; arba žalių rodyklių gretimoms žemėlapius.


METAR-TAF: